sensor_id;sensor_type;location;lat;lon;timestamp;P1;durP1;ratioP1;P2;durP2;ratioP2
12970;SDS011;6550;48.650;8.774;2023-09-30T00:01:22;2.43;;;1.60;;
12970;SDS011;6550;48.650;8.774;2023-09-30T00:03:49;3.73;;;2.13;;
12970;SDS011;6550;48.650;8.774;2023-09-30T00:06:16;3.15;;;2.00;;
12970;SDS011;6550;48.650;8.774;2023-09-30T00:08:44;2.40;;;1.70;;
12970;SDS011;6550;48.650;8.774;2023-09-30T00:11:14;3.60;;;1.83;;
12970;SDS011;6550;48.650;8.774;2023-09-30T00:13:43;2.53;;;1.60;;
12970;SDS011;6550;48.650;8.774;2023-09-30T00:16:10;2.73;;;1.80;;
12970;SDS011;6550;48.650;8.774;2023-09-30T00:18:37;2.63;;;2.00;;
12970;SDS011;6550;48.650;8.774;2023-09-30T00:21:03;3.53;;;1.90;;
12970;SDS011;6550;48.650;8.774;2023-09-30T00:23:31;3.37;;;2.17;;
12970;SDS011;6550;48.650;8.774;2023-09-30T00:25:58;4.43;;;2.17;;
12970;SDS011;6550;48.650;8.774;2023-09-30T00:28:29;4.80;;;2.27;;
12970;SDS011;6550;48.650;8.774;2023-09-30T00:30:55;3.53;;;1.80;;
12970;SDS011;6550;48.650;8.774;2023-09-30T00:33:25;3.23;;;1.80;;
12970;SDS011;6550;48.650;8.774;2023-09-30T00:35:54;3.00;;;1.70;;
12970;SDS011;6550;48.650;8.774;2023-09-30T00:38:20;4.03;;;1.80;;
12970;SDS011;6550;48.650;8.774;2023-09-30T00:40:50;2.43;;;1.57;;
12970;SDS011;6550;48.650;8.774;2023-09-30T00:43:17;2.00;;;1.40;;
12970;SDS011;6550;48.650;8.774;2023-09-30T00:46:01;2.90;;;1.73;;
12970;SDS011;6550;48.650;8.774;2023-09-30T00:48:34;2.83;;;1.70;;
12970;SDS011;6550;48.650;8.774;2023-09-30T00:51:08;4.40;;;1.90;;
12970;SDS011;6550;48.650;8.774;2023-09-30T00:53:34;4.17;;;1.90;;
12970;SDS011;6550;48.650;8.774;2023-09-30T00:56:04;1.90;;;1.30;;
12970;SDS011;6550;48.650;8.774;2023-09-30T00:58:32;2.00;;;1.50;;
12970;SDS011;6550;48.650;8.774;2023-09-30T01:01:02;2.77;;;1.90;;
12970;SDS011;6550;48.650;8.774;2023-09-30T01:03:30;3.53;;;1.73;;
12970;SDS011;6550;48.650;8.774;2023-09-30T01:06:00;3.20;;;1.73;;
12970;SDS011;6550;48.650;8.774;2023-09-30T01:08:30;2.70;;;1.80;;
12970;SDS011;6550;48.650;8.774;2023-09-30T01:10:58;3.37;;;1.60;;
12970;SDS011;6550;48.650;8.774;2023-09-30T01:13:34;2.00;;;1.60;;
12970;SDS011;6550;48.650;8.774;2023-09-30T01:18:38;3.17;;;1.40;;
12970;SDS011;6550;48.650;8.774;2023-09-30T01:21:06;4.37;;;1.90;;
12970;SDS011;6550;48.650;8.774;2023-09-30T01:23:41;2.63;;;1.60;;
12970;SDS011;6550;48.650;8.774;2023-09-30T01:26:10;2.60;;;1.70;;
12970;SDS011;6550;48.650;8.774;2023-09-30T01:28:40;3.17;;;1.70;;
12970;SDS011;6550;48.650;8.774;2023-09-30T01:31:10;5.77;;;2.20;;
12970;SDS011;6550;48.650;8.774;2023-09-30T01:33:38;3.63;;;2.08;;
12970;SDS011;6550;48.650;8.774;2023-09-30T01:36:08;2.50;;;1.60;;
12970;SDS011;6550;48.650;8.774;2023-09-30T01:38:34;2.70;;;1.63;;
12970;SDS011;6550;48.650;8.774;2023-09-30T01:41:02;4.30;;;2.03;;
12970;SDS011;6550;48.650;8.774;2023-09-30T01:43:29;1.90;;;1.30;;
12970;SDS011;6550;48.650;8.774;2023-09-30T01:46:02;2.77;;;1.53;;
12970;SDS011;6550;48.650;8.774;2023-09-30T01:48:28;3.43;;;1.80;;
12970;SDS011;6550;48.650;8.774;2023-09-30T01:50:58;4.80;;;1.83;;
12970;SDS011;6550;48.650;8.774;2023-09-30T01:53:29;3.57;;;1.70;;
12970;SDS011;6550;48.650;8.774;2023-09-30T01:55:56;3.80;;;1.90;;
12970;SDS011;6550;48.650;8.774;2023-09-30T01:58:25;1.97;;;1.73;;
12970;SDS011;6550;48.650;8.774;2023-09-30T02:00:52;3.43;;;1.80;;
12970;SDS011;6550;48.650;8.774;2023-09-30T02:03:19;4.77;;;1.60;;
12970;SDS011;6550;48.650;8.774;2023-09-30T02:05:48;4.30;;;2.00;;
12970;SDS011;6550;48.650;8.774;2023-09-30T02:08:17;2.27;;;1.50;;
12970;SDS011;6550;48.650;8.774;2023-09-30T02:10:49;3.10;;;1.77;;
12970;SDS011;6550;48.650;8.774;2023-09-30T02:13:19;3.60;;;1.70;;
12970;SDS011;6550;48.650;8.774;2023-09-30T02:15:46;2.53;;;1.50;;
12970;SDS011;6550;48.650;8.774;2023-09-30T02:18:13;2.80;;;1.90;;
12970;SDS011;6550;48.650;8.774;2023-09-30T02:20:41;3.03;;;1.80;;
12970;SDS011;6550;48.650;8.774;2023-09-30T02:23:08;2.80;;;1.77;;
12970;SDS011;6550;48.650;8.774;2023-09-30T02:25:37;3.03;;;1.70;;
12970;SDS011;6550;48.650;8.774;2023-09-30T02:28:04;3.97;;;1.70;;
12970;SDS011;6550;48.650;8.774;2023-09-30T02:30:32;3.40;;;1.70;;
12970;SDS011;6550;48.650;8.774;2023-09-30T02:32:59;2.27;;;1.50;;
12970;SDS011;6550;48.650;8.774;2023-09-30T02:35:26;3.20;;;1.63;;
12970;SDS011;6550;48.650;8.774;2023-09-30T02:37:56;2.70;;;1.77;;
12970;SDS011;6550;48.650;8.774;2023-09-30T02:40:25;3.10;;;1.70;;
12970;SDS011;6550;48.650;8.774;2023-09-30T02:42:51;3.27;;;2.00;;
12970;SDS011;6550;48.650;8.774;2023-09-30T02:45:18;2.73;;;1.80;;
12970;SDS011;6550;48.650;8.774;2023-09-30T02:47:47;2.97;;;1.87;;
12970;SDS011;6550;48.650;8.774;2023-09-30T02:50:14;2.80;;;1.70;;
12970;SDS011;6550;48.650;8.774;2023-09-30T02:52:41;2.97;;;1.67;;
12970;SDS011;6550;48.650;8.774;2023-09-30T02:55:12;2.20;;;1.60;;
12970;SDS011;6550;48.650;8.774;2023-09-30T02:57:39;2.93;;;1.87;;
12970;SDS011;6550;48.650;8.774;2023-09-30T03:00:09;2.53;;;1.50;;
12970;SDS011;6550;48.650;8.774;2023-09-30T03:02:53;3.57;;;1.80;;
12970;SDS011;6550;48.650;8.774;2023-09-30T03:05:20;2.47;;;1.73;;
12970;SDS011;6550;48.650;8.774;2023-09-30T03:07:49;4.33;;;1.70;;
12970;SDS011;6550;48.650;8.774;2023-09-30T03:10:21;2.07;;;1.50;;
12970;SDS011;6550;48.650;8.774;2023-09-30T03:12:50;2.73;;;1.53;;
12970;SDS011;6550;48.650;8.774;2023-09-30T03:15:22;3.43;;;1.47;;
12970;SDS011;6550;48.650;8.774;2023-09-30T03:17:51;4.00;;;2.00;;
12970;SDS011;6550;48.650;8.774;2023-09-30T03:20:19;2.87;;;1.73;;
12970;SDS011;6550;48.650;8.774;2023-09-30T03:22:47;2.63;;;1.80;;
12970;SDS011;6550;48.650;8.774;2023-09-30T03:25:14;3.13;;;2.00;;
12970;SDS011;6550;48.650;8.774;2023-09-30T03:27:45;1.95;;;1.50;;
12970;SDS011;6550;48.650;8.774;2023-09-30T03:30:13;2.70;;;2.00;;
12970;SDS011;6550;48.650;8.774;2023-09-30T03:32:43;3.47;;;1.90;;
12970;SDS011;6550;48.650;8.774;2023-09-30T03:35:10;4.47;;;1.60;;
12970;SDS011;6550;48.650;8.774;2023-09-30T03:37:41;2.73;;;1.70;;
12970;SDS011;6550;48.650;8.774;2023-09-30T03:40:08;2.70;;;1.60;;
12970;SDS011;6550;48.650;8.774;2023-09-30T03:42:40;3.50;;;1.47;;
12970;SDS011;6550;48.650;8.774;2023-09-30T03:45:10;3.30;;;1.57;;
12970;SDS011;6550;48.650;8.774;2023-09-30T03:47:40;1.77;;;1.40;;
12970;SDS011;6550;48.650;8.774;2023-09-30T03:50:08;2.07;;;1.63;;
12970;SDS011;6550;48.650;8.774;2023-09-30T03:52:42;2.67;;;1.57;;
12970;SDS011;6550;48.650;8.774;2023-09-30T03:55:14;2.60;;;1.60;;
12970;SDS011;6550;48.650;8.774;2023-09-30T03:57:42;2.67;;;1.57;;
12970;SDS011;6550;48.650;8.774;2023-09-30T04:00:09;3.40;;;1.80;;
12970;SDS011;6550;48.650;8.774;2023-09-30T04:02:44;1.90;;;1.47;;
12970;SDS011;6550;48.650;8.774;2023-09-30T04:05:14;2.73;;;1.57;;
12970;SDS011;6550;48.650;8.774;2023-09-30T04:07:46;4.97;;;1.60;;
12970;SDS011;6550;48.650;8.774;2023-09-30T04:10:13;2.97;;;1.60;;
12970;SDS011;6550;48.650;8.774;2023-09-30T04:12:40;2.80;;;1.57;;
12970;SDS011;6550;48.650;8.774;2023-09-30T04:15:07;2.25;;;1.80;;
12970;SDS011;6550;48.650;8.774;2023-09-30T04:17:38;2.03;;;1.57;;
12970;SDS011;6550;48.650;8.774;2023-09-30T04:20:08;2.60;;;1.63;;
12970;SDS011;6550;48.650;8.774;2023-09-30T04:22:44;2.43;;;1.53;;
12970;SDS011;6550;48.650;8.774;2023-09-30T04:25:15;2.93;;;1.60;;
12970;SDS011;6550;48.650;8.774;2023-09-30T04:27:42;4.07;;;1.63;;
12970;SDS011;6550;48.650;8.774;2023-09-30T04:30:11;2.47;;;1.60;;
12970;SDS011;6550;48.650;8.774;2023-09-30T04:32:38;2.63;;;1.50;;
12970;SDS011;6550;48.650;8.774;2023-09-30T04:35:05;2.80;;;2.00;;
12970;SDS011;6550;48.650;8.774;2023-09-30T04:37:35;2.27;;;1.40;;
12970;SDS011;6550;48.650;8.774;2023-09-30T04:40:06;1.97;;;1.40;;
12970;SDS011;6550;48.650;8.774;2023-09-30T04:42:42;2.17;;;1.50;;
12970;SDS011;6550;48.650;8.774;2023-09-30T04:45:10;2.83;;;1.80;;
12970;SDS011;6550;48.650;8.774;2023-09-30T04:47:42;2.37;;;1.47;;
12970;SDS011;6550;48.650;8.774;2023-09-30T04:50:15;2.50;;;1.70;;
12970;SDS011;6550;48.650;8.774;2023-09-30T04:52:43;3.40;;;1.63;;
12970;SDS011;6550;48.650;8.774;2023-09-30T04:55:13;3.13;;;1.80;;
12970;SDS011;6550;48.650;8.774;2023-09-30T04:57:45;2.33;;;1.90;;
12970;SDS011;6550;48.650;8.774;2023-09-30T05:00:16;3.15;;;1.65;;
12970;SDS011;6550;48.650;8.774;2023-09-30T05:02:44;4.47;;;1.50;;
12970;SDS011;6550;48.650;8.774;2023-09-30T05:05:12;1.77;;;1.27;;
12970;SDS011;6550;48.650;8.774;2023-09-30T05:07:39;2.63;;;1.80;;
12970;SDS011;6550;48.650;8.774;2023-09-30T05:10:08;1.67;;;1.57;;
12970;SDS011;6550;48.650;8.774;2023-09-30T05:12:39;2.80;;;1.73;;
12970;SDS011;6550;48.650;8.774;2023-09-30T05:15:12;2.43;;;1.70;;
12970;SDS011;6550;48.650;8.774;2023-09-30T05:17:43;1.60;;;1.40;;
12970;SDS011;6550;48.650;8.774;2023-09-30T05:20:10;3.15;;;1.65;;
12970;SDS011;6550;48.650;8.774;2023-09-30T05:22:39;2.77;;;1.50;;
12970;SDS011;6550;48.650;8.774;2023-09-30T05:25:12;2.47;;;1.70;;
12970;SDS011;6550;48.650;8.774;2023-09-30T05:27:45;1.90;;;1.57;;
12970;SDS011;6550;48.650;8.774;2023-09-30T05:30:14;2.83;;;1.53;;
12970;SDS011;6550;48.650;8.774;2023-09-30T05:32:42;2.20;;;1.60;;
12970;SDS011;6550;48.650;8.774;2023-09-30T05:35:09;3.33;;;1.53;;
12970;SDS011;6550;48.650;8.774;2023-09-30T05:37:40;3.47;;;1.73;;
12970;SDS011;6550;48.650;8.774;2023-09-30T05:40:11;2.30;;;1.57;;
12970;SDS011;6550;48.650;8.774;2023-09-30T05:42:48;2.77;;;1.60;;
12970;SDS011;6550;48.650;8.774;2023-09-30T05:45:18;3.78;;;1.80;;
12970;SDS011;6550;48.650;8.774;2023-09-30T05:47:45;1.93;;;1.53;;
12970;SDS011;6550;48.650;8.774;2023-09-30T05:50:17;5.30;;;2.17;;
12970;SDS011;6550;48.650;8.774;2023-09-30T05:52:50;2.20;;;1.33;;
12970;SDS011;6550;48.650;8.774;2023-09-30T05:55:17;2.43;;;1.67;;
12970;SDS011;6550;48.650;8.774;2023-09-30T05:57:48;3.27;;;1.77;;
12970;SDS011;6550;48.650;8.774;2023-09-30T06:00:16;2.63;;;1.60;;
12970;SDS011;6550;48.650;8.774;2023-09-30T06:02:49;2.87;;;1.70;;
12970;SDS011;6550;48.650;8.774;2023-09-30T06:05:20;3.37;;;1.80;;
12970;SDS011;6550;48.650;8.774;2023-09-30T06:07:49;3.17;;;1.83;;
12970;SDS011;6550;48.650;8.774;2023-09-30T06:10:16;3.57;;;1.63;;
12970;SDS011;6550;48.650;8.774;2023-09-30T06:12:46;8.33;;;1.90;;
12970;SDS011;6550;48.650;8.774;2023-09-30T06:15:16;2.50;;;1.37;;
12970;SDS011;6550;48.650;8.774;2023-09-30T06:17:51;3.07;;;1.73;;
12970;SDS011;6550;48.650;8.774;2023-09-30T06:20:21;4.13;;;1.60;;
12970;SDS011;6550;48.650;8.774;2023-09-30T06:22:52;2.10;;;1.33;;
12970;SDS011;6550;48.650;8.774;2023-09-30T06:25:24;3.67;;;1.63;;
12970;SDS011;6550;48.650;8.774;2023-09-30T06:27:56;3.33;;;1.60;;
12970;SDS011;6550;48.650;8.774;2023-09-30T06:30:23;4.28;;;1.60;;
12970;SDS011;6550;48.650;8.774;2023-09-30T06:32:57;5.63;;;1.63;;
12970;SDS011;6550;48.650;8.774;2023-09-30T06:35:27;4.20;;;1.30;;
12970;SDS011;6550;48.650;8.774;2023-09-30T06:37:56;3.47;;;1.70;;
12970;SDS011;6550;48.650;8.774;2023-09-30T06:40:23;2.00;;;1.40;;
12970;SDS011;6550;48.650;8.774;2023-09-30T06:42:50;5.50;;;1.43;;
12970;SDS011;6550;48.650;8.774;2023-09-30T06:45:18;2.43;;;1.40;;
12970;SDS011;6550;48.650;8.774;2023-09-30T06:47:45;3.63;;;1.37;;
12970;SDS011;6550;48.650;8.774;2023-09-30T06:50:13;3.67;;;1.70;;
12970;SDS011;6550;48.650;8.774;2023-09-30T06:52:43;2.97;;;1.70;;
12970;SDS011;6550;48.650;8.774;2023-09-30T06:55:16;3.10;;;1.70;;
12970;SDS011;6550;48.650;8.774;2023-09-30T06:57:43;5.23;;;1.63;;
12970;SDS011;6550;48.650;8.774;2023-09-30T07:00:11;2.67;;;1.60;;
12970;SDS011;6550;48.650;8.774;2023-09-30T07:02:42;3.17;;;1.77;;
12970;SDS011;6550;48.650;8.774;2023-09-30T07:05:12;2.03;;;1.60;;
12970;SDS011;6550;48.650;8.774;2023-09-30T07:07:41;3.60;;;1.93;;
12970;SDS011;6550;48.650;8.774;2023-09-30T07:10:11;3.03;;;2.13;;
12970;SDS011;6550;48.650;8.774;2023-09-30T07:12:39;3.63;;;1.87;;
12970;SDS011;6550;48.650;8.774;2023-09-30T07:15:06;2.57;;;1.60;;
12970;SDS011;6550;48.650;8.774;2023-09-30T07:17:35;9.50;;;2.50;;
12970;SDS011;6550;48.650;8.774;2023-09-30T07:20:03;4.40;;;1.77;;
12970;SDS011;6550;48.650;8.774;2023-09-30T07:22:33;4.43;;;1.90;;
12970;SDS011;6550;48.650;8.774;2023-09-30T07:25:20;2.70;;;1.80;;
12970;SDS011;6550;48.650;8.774;2023-09-30T07:27:49;2.50;;;1.63;;
12970;SDS011;6550;48.650;8.774;2023-09-30T07:30:17;2.77;;;1.87;;
12970;SDS011;6550;48.650;8.774;2023-09-30T07:32:46;2.80;;;1.80;;
12970;SDS011;6550;48.650;8.774;2023-09-30T07:35:13;3.23;;;1.97;;
12970;SDS011;6550;48.650;8.774;2023-09-30T07:37:45;2.95;;;2.20;;
12970;SDS011;6550;48.650;8.774;2023-09-30T07:40:12;3.23;;;1.90;;
12970;SDS011;6550;48.650;8.774;2023-09-30T07:42:39;7.40;;;2.53;;
12970;SDS011;6550;48.650;8.774;2023-09-30T07:45:06;3.57;;;2.20;;
12970;SDS011;6550;48.650;8.774;2023-09-30T07:47:34;4.00;;;1.97;;
12970;SDS011;6550;48.650;8.774;2023-09-30T07:50:03;4.40;;;2.10;;
12970;SDS011;6550;48.650;8.774;2023-09-30T07:52:36;2.40;;;1.80;;
12970;SDS011;6550;48.650;8.774;2023-09-30T07:55:06;6.00;;;2.00;;
12970;SDS011;6550;48.650;8.774;2023-09-30T07:57:34;3.63;;;2.00;;
12970;SDS011;6550;48.650;8.774;2023-09-30T08:00:02;2.70;;;1.80;;
12970;SDS011;6550;48.650;8.774;2023-09-30T08:02:35;2.23;;;1.70;;
12970;SDS011;6550;48.650;8.774;2023-09-30T08:05:03;3.40;;;2.10;;
12970;SDS011;6550;48.650;8.774;2023-09-30T08:07:32;3.10;;;1.97;;
12970;SDS011;6550;48.650;8.774;2023-09-30T08:10:00;2.33;;;1.60;;
12970;SDS011;6550;48.650;8.774;2023-09-30T08:12:31;2.90;;;1.80;;
12970;SDS011;6550;48.650;8.774;2023-09-30T08:14:58;3.43;;;2.17;;
12970;SDS011;6550;48.650;8.774;2023-09-30T08:17:25;2.73;;;1.73;;
12970;SDS011;6550;48.650;8.774;2023-09-30T08:19:52;1.43;;;1.33;;
12970;SDS011;6550;48.650;8.774;2023-09-30T08:22:18;2.70;;;1.92;;
12970;SDS011;6550;48.650;8.774;2023-09-30T08:24:51;2.37;;;1.53;;
12970;SDS011;6550;48.650;8.774;2023-09-30T08:27:23;2.77;;;1.57;;
12970;SDS011;6550;48.650;8.774;2023-09-30T08:29:50;3.20;;;1.70;;
12970;SDS011;6550;48.650;8.774;2023-09-30T08:32:19;3.67;;;1.73;;
12970;SDS011;6550;48.650;8.774;2023-09-30T08:34:49;2.70;;;1.97;;
12970;SDS011;6550;48.650;8.774;2023-09-30T08:37:16;4.53;;;1.90;;
12970;SDS011;6550;48.650;8.774;2023-09-30T08:39:46;2.70;;;2.00;;
12970;SDS011;6550;48.650;8.774;2023-09-30T08:42:13;3.30;;;1.80;;
12970;SDS011;6550;48.650;8.774;2023-09-30T08:44:40;3.77;;;1.90;;
12970;SDS011;6550;48.650;8.774;2023-09-30T08:47:10;2.73;;;1.70;;
12970;SDS011;6550;48.650;8.774;2023-09-30T08:49:40;3.67;;;2.00;;
12970;SDS011;6550;48.650;8.774;2023-09-30T08:52:10;2.40;;;1.70;;
12970;SDS011;6550;48.650;8.774;2023-09-30T08:54:39;2.27;;;1.90;;
12970;SDS011;6550;48.650;8.774;2023-09-30T08:57:07;3.47;;;1.77;;
12970;SDS011;6550;48.650;8.774;2023-09-30T08:59:36;2.87;;;1.80;;
12970;SDS011;6550;48.650;8.774;2023-09-30T09:02:09;2.97;;;1.70;;
12970;SDS011;6550;48.650;8.774;2023-09-30T09:04:36;3.67;;;1.90;;
12970;SDS011;6550;48.650;8.774;2023-09-30T09:07:06;3.00;;;1.80;;
12970;SDS011;6550;48.650;8.774;2023-09-30T09:09:36;4.77;;;1.83;;
12970;SDS011;6550;48.650;8.774;2023-09-30T09:12:03;3.43;;;1.90;;
12970;SDS011;6550;48.650;8.774;2023-09-30T09:14:36;3.83;;;1.87;;
12970;SDS011;6550;48.650;8.774;2023-09-30T09:17:10;2.00;;;1.63;;
12970;SDS011;6550;48.650;8.774;2023-09-30T09:19:40;3.00;;;1.73;;
12970;SDS011;6550;48.650;8.774;2023-09-30T09:22:07;2.93;;;1.70;;
12970;SDS011;6550;48.650;8.774;2023-09-30T09:24:36;3.20;;;2.00;;
12970;SDS011;6550;48.650;8.774;2023-09-30T09:27:12;3.23;;;1.97;;
12970;SDS011;6550;48.650;8.774;2023-09-30T09:29:45;2.83;;;1.77;;
12970;SDS011;6550;48.650;8.774;2023-09-30T09:32:15;2.93;;;2.00;;
12970;SDS011;6550;48.650;8.774;2023-09-30T09:34:45;3.67;;;1.93;;
12970;SDS011;6550;48.650;8.774;2023-09-30T09:37:30;4.23;;;2.30;;
12970;SDS011;6550;48.650;8.774;2023-09-30T09:39:58;3.90;;;2.70;;
12970;SDS011;6550;48.650;8.774;2023-09-30T09:42:29;3.23;;;2.30;;
12970;SDS011;6550;48.650;8.774;2023-09-30T09:45:03;3.00;;;2.30;;
12970;SDS011;6550;48.650;8.774;2023-09-30T09:47:31;3.53;;;2.37;;
12970;SDS011;6550;48.650;8.774;2023-09-30T09:50:02;5.10;;;2.60;;
12970;SDS011;6550;48.650;8.774;2023-09-30T09:52:32;6.13;;;2.63;;
12970;SDS011;6550;48.650;8.774;2023-09-30T09:55:00;2.90;;;2.00;;
12970;SDS011;6550;48.650;8.774;2023-09-30T09:57:28;3.53;;;2.23;;
12970;SDS011;6550;48.650;8.774;2023-09-30T09:59:58;3.67;;;2.13;;
12970;SDS011;6550;48.650;8.774;2023-09-30T10:02:31;2.63;;;1.87;;
12970;SDS011;6550;48.650;8.774;2023-09-30T10:05:05;4.07;;;2.30;;
12970;SDS011;6550;48.650;8.774;2023-09-30T10:07:34;4.43;;;2.10;;
12970;SDS011;6550;48.650;8.774;2023-09-30T10:10:10;3.50;;;2.47;;
12970;SDS011;6550;48.650;8.774;2023-09-30T10:12:39;3.87;;;2.60;;
12970;SDS011;6550;48.650;8.774;2023-09-30T10:20:41;3.90;;;2.53;;
12970;SDS011;6550;48.650;8.774;2023-09-30T10:23:22;5.30;;;2.73;;
12970;SDS011;6550;48.650;8.774;2023-09-30T10:38:59;3.80;;;2.40;;
12970;SDS011;6550;48.650;8.774;2023-09-30T10:44:31;5.80;;;3.10;;
12970;SDS011;6550;48.650;8.774;2023-09-30T10:47:33;5.30;;;2.40;;
12970;SDS011;6550;48.650;8.774;2023-09-30T10:50:00;3.90;;;2.20;;
12970;SDS011;6550;48.650;8.774;2023-09-30T10:52:28;3.80;;;2.40;;
12970;SDS011;6550;48.650;8.774;2023-09-30T10:54:56;4.93;;;2.60;;
12970;SDS011;6550;48.650;8.774;2023-09-30T10:57:29;4.90;;;2.80;;
12970;SDS011;6550;48.650;8.774;2023-09-30T11:00:08;5.23;;;3.30;;
12970;SDS011;6550;48.650;8.774;2023-09-30T11:02:49;4.47;;;3.00;;
12970;SDS011;6550;48.650;8.774;2023-09-30T11:05:19;4.80;;;3.13;;
12970;SDS011;6550;48.650;8.774;2023-09-30T11:08:10;8.93;;;3.73;;
12970;SDS011;6550;48.650;8.774;2023-09-30T11:10:36;5.43;;;3.30;;
12970;SDS011;6550;48.650;8.774;2023-09-30T11:13:05;3.97;;;2.63;;
12970;SDS011;6550;48.650;8.774;2023-09-30T11:15:32;5.30;;;3.45;;
12970;SDS011;6550;48.650;8.774;2023-09-30T11:18:12;7.90;;;3.37;;
12970;SDS011;6550;48.650;8.774;2023-09-30T11:20:42;6.13;;;3.60;;
12970;SDS011;6550;48.650;8.774;2023-09-30T11:23:10;6.60;;;3.00;;
12970;SDS011;6550;48.650;8.774;2023-09-30T11:25:38;10.17;;;3.50;;
12970;SDS011;6550;48.650;8.774;2023-09-30T11:28:13;9.03;;;3.23;;
12970;SDS011;6550;48.650;8.774;2023-09-30T11:30:56;14.87;;;3.50;;
12970;SDS011;6550;48.650;8.774;2023-09-30T11:33:24;6.83;;;3.40;;
12970;SDS011;6550;48.650;8.774;2023-09-30T11:36:01;7.80;;;3.60;;
12970;SDS011;6550;48.650;8.774;2023-09-30T11:38:32;7.73;;;2.93;;
12970;SDS011;6550;48.650;8.774;2023-09-30T11:41:04;7.13;;;2.93;;
12970;SDS011;6550;48.650;8.774;2023-09-30T11:43:33;8.70;;;3.50;;
12970;SDS011;6550;48.650;8.774;2023-09-30T11:46:11;5.63;;;2.57;;
12970;SDS011;6550;48.650;8.774;2023-09-30T11:48:56;8.37;;;3.77;;
12970;SDS011;6550;48.650;8.774;2023-09-30T11:51:26;7.87;;;3.60;;
12970;SDS011;6550;48.650;8.774;2023-09-30T11:53:57;5.70;;;3.17;;
12970;SDS011;6550;48.650;8.774;2023-09-30T11:56:34;7.20;;;3.92;;
12970;SDS011;6550;48.650;8.774;2023-09-30T11:59:02;6.27;;;3.07;;
12970;SDS011;6550;48.650;8.774;2023-09-30T12:01:30;4.90;;;3.20;;
12970;SDS011;6550;48.650;8.774;2023-09-30T12:04:00;5.63;;;3.50;;
12970;SDS011;6550;48.650;8.774;2023-09-30T12:06:27;5.10;;;3.40;;
12970;SDS011;6550;48.650;8.774;2023-09-30T12:08:54;6.13;;;3.23;;
12970;SDS011;6550;48.650;8.774;2023-09-30T12:11:23;5.57;;;3.47;;
12970;SDS011;6550;48.650;8.774;2023-09-30T12:13:50;5.17;;;3.00;;
12970;SDS011;6550;48.650;8.774;2023-09-30T12:16:18;9.30;;;3.37;;
12970;SDS011;6550;48.650;8.774;2023-09-30T12:18:47;7.30;;;3.23;;
12970;SDS011;6550;48.650;8.774;2023-09-30T12:21:19;3.90;;;2.60;;
12970;SDS011;6550;48.650;8.774;2023-09-30T12:23:46;6.63;;;3.42;;
12970;SDS011;6550;48.650;8.774;2023-09-30T12:26:14;6.93;;;3.17;;
12970;SDS011;6550;48.650;8.774;2023-09-30T12:28:44;4.33;;;3.03;;
12970;SDS011;6550;48.650;8.774;2023-09-30T12:31:10;7.13;;;3.00;;
12970;SDS011;6550;48.650;8.774;2023-09-30T12:33:40;5.43;;;3.03;;
12970;SDS011;6550;48.650;8.774;2023-09-30T12:36:09;6.27;;;3.57;;
12970;SDS011;6550;48.650;8.774;2023-09-30T12:38:39;5.85;;;3.30;;
12970;SDS011;6550;48.650;8.774;2023-09-30T12:41:08;5.23;;;3.13;;
12970;SDS011;6550;48.650;8.774;2023-09-30T12:43:38;6.63;;;3.73;;
12970;SDS011;6550;48.650;8.774;2023-09-30T12:46:05;7.10;;;3.33;;
12970;SDS011;6550;48.650;8.774;2023-09-30T12:48:35;4.40;;;3.00;;
12970;SDS011;6550;48.650;8.774;2023-09-30T12:51:04;6.23;;;2.73;;
12970;SDS011;6550;48.650;8.774;2023-09-30T12:53:33;6.77;;;3.30;;
12970;SDS011;6550;48.650;8.774;2023-09-30T12:56:00;5.43;;;3.30;;
12970;SDS011;6550;48.650;8.774;2023-09-30T12:58:26;5.53;;;3.43;;
12970;SDS011;6550;48.650;8.774;2023-09-30T13:00:56;5.73;;;3.27;;
12970;SDS011;6550;48.650;8.774;2023-09-30T13:03:41;5.90;;;3.70;;
12970;SDS011;6550;48.650;8.774;2023-09-30T13:06:07;4.70;;;3.20;;
12970;SDS011;6550;48.650;8.774;2023-09-30T13:08:36;4.90;;;3.33;;
12970;SDS011;6550;48.650;8.774;2023-09-30T13:11:03;4.43;;;3.30;;
12970;SDS011;6550;48.650;8.774;2023-09-30T13:13:30;5.73;;;3.23;;
12970;SDS011;6550;48.650;8.774;2023-09-30T13:15:59;5.67;;;3.30;;
12970;SDS011;6550;48.650;8.774;2023-09-30T13:18:31;5.03;;;3.50;;
12970;SDS011;6550;48.650;8.774;2023-09-30T13:21:01;4.73;;;3.23;;
12970;SDS011;6550;48.650;8.774;2023-09-30T13:23:28;5.27;;;3.50;;
12970;SDS011;6550;48.650;8.774;2023-09-30T13:25:58;4.70;;;3.33;;
12970;SDS011;6550;48.650;8.774;2023-09-30T13:28:27;5.07;;;3.20;;
12970;SDS011;6550;48.650;8.774;2023-09-30T13:30:56;5.43;;;3.20;;
12970;SDS011;6550;48.650;8.774;2023-09-30T13:33:25;4.47;;;3.00;;
12970;SDS011;6550;48.650;8.774;2023-09-30T13:35:55;3.83;;;3.17;;
12970;SDS011;6550;48.650;8.774;2023-09-30T13:38:22;8.03;;;3.80;;
12970;SDS011;6550;48.650;8.774;2023-09-30T13:40:50;4.63;;;3.43;;
12970;SDS011;6550;48.650;8.774;2023-09-30T13:43:16;6.00;;;3.33;;
12970;SDS011;6550;48.650;8.774;2023-09-30T13:45:45;5.35;;;3.72;;
12970;SDS011;6550;48.650;8.774;2023-09-30T13:48:12;4.40;;;2.97;;
12970;SDS011;6550;48.650;8.774;2023-09-30T13:50:39;6.37;;;3.23;;
12970;SDS011;6550;48.650;8.774;2023-09-30T13:53:08;5.13;;;3.07;;
12970;SDS011;6550;48.650;8.774;2023-09-30T13:55:37;5.40;;;3.10;;
12970;SDS011;6550;48.650;8.774;2023-09-30T13:58:05;6.72;;;3.83;;
12970;SDS011;6550;48.650;8.774;2023-09-30T14:00:33;5.40;;;3.20;;
12970;SDS011;6550;48.650;8.774;2023-09-30T14:03:00;5.73;;;3.33;;
12970;SDS011;6550;48.650;8.774;2023-09-30T14:05:27;5.10;;;3.07;;
12970;SDS011;6550;48.650;8.774;2023-09-30T14:07:56;3.93;;;3.10;;
12970;SDS011;6550;48.650;8.774;2023-09-30T14:10:25;4.77;;;3.00;;
12970;SDS011;6550;48.650;8.774;2023-09-30T14:12:52;5.60;;;3.50;;
12970;SDS011;6550;48.650;8.774;2023-09-30T14:15:23;4.70;;;3.07;;
12970;SDS011;6550;48.650;8.774;2023-09-30T14:17:50;6.13;;;2.67;;
12970;SDS011;6550;48.650;8.774;2023-09-30T14:20:17;4.07;;;2.80;;
12970;SDS011;6550;48.650;8.774;2023-09-30T14:22:44;5.57;;;3.40;;
12970;SDS011;6550;48.650;8.774;2023-09-30T14:25:13;5.20;;;3.42;;
12970;SDS011;6550;48.650;8.774;2023-09-30T14:27:42;4.83;;;2.87;;
12970;SDS011;6550;48.650;8.774;2023-09-30T14:30:13;4.93;;;3.10;;
12970;SDS011;6550;48.650;8.774;2023-09-30T14:32:41;4.53;;;3.10;;
12970;SDS011;6550;48.650;8.774;2023-09-30T14:35:09;5.63;;;3.20;;
12970;SDS011;6550;48.650;8.774;2023-09-30T14:37:38;4.57;;;3.22;;
12970;SDS011;6550;48.650;8.774;2023-09-30T14:40:07;4.80;;;3.20;;
12970;SDS011;6550;48.650;8.774;2023-09-30T14:42:37;4.53;;;3.13;;
12970;SDS011;6550;48.650;8.774;2023-09-30T14:45:06;5.07;;;2.90;;
12970;SDS011;6550;48.650;8.774;2023-09-30T14:47:37;7.23;;;3.63;;
12970;SDS011;6550;48.650;8.774;2023-09-30T14:50:07;5.97;;;3.20;;
12970;SDS011;6550;48.650;8.774;2023-09-30T14:52:34;4.43;;;2.97;;
12970;SDS011;6550;48.650;8.774;2023-09-30T14:55:01;4.37;;;2.90;;
12970;SDS011;6550;48.650;8.774;2023-09-30T14:57:30;6.47;;;3.53;;
12970;SDS011;6550;48.650;8.774;2023-09-30T15:00:01;6.07;;;3.43;;
12970;SDS011;6550;48.650;8.774;2023-09-30T15:02:30;5.03;;;3.10;;
12970;SDS011;6550;48.650;8.774;2023-09-30T15:05:00;5.65;;;3.50;;
12970;SDS011;6550;48.650;8.774;2023-09-30T15:07:27;5.77;;;3.10;;
12970;SDS011;6550;48.650;8.774;2023-09-30T15:09:54;4.13;;;3.10;;
12970;SDS011;6550;48.650;8.774;2023-09-30T15:12:23;5.57;;;3.10;;
12970;SDS011;6550;48.650;8.774;2023-09-30T15:14:51;10.10;;;3.83;;
12970;SDS011;6550;48.650;8.774;2023-09-30T15:17:21;6.00;;;3.20;;
12970;SDS011;6550;48.650;8.774;2023-09-30T15:19:48;4.23;;;3.43;;
12970;SDS011;6550;48.650;8.774;2023-09-30T15:22:15;8.00;;;3.80;;
12970;SDS011;6550;48.650;8.774;2023-09-30T15:24:44;8.73;;;5.00;;
12970;SDS011;6550;48.650;8.774;2023-09-30T15:27:11;11.87;;;6.27;;
12970;SDS011;6550;48.650;8.774;2023-09-30T15:29:38;9.47;;;5.70;;
12970;SDS011;6550;48.650;8.774;2023-09-30T15:32:10;11.47;;;5.37;;
12970;SDS011;6550;48.650;8.774;2023-09-30T15:34:41;9.13;;;5.27;;
12970;SDS011;6550;48.650;8.774;2023-09-30T15:37:08;8.73;;;4.63;;
12970;SDS011;6550;48.650;8.774;2023-09-30T15:39:38;7.77;;;4.40;;